sensor_id;sensor_type;location;lat;lon;timestamp;P1;durP1;ratioP1;P2;durP2;ratioP2
5456;SDS011;2751;49.802;9.944;2022-09-29T00:00:47;5.90;;;4.50;;
5456;SDS011;2751;49.802;9.944;2022-09-29T00:03:14;9.00;;;4.10;;
5456;SDS011;2751;49.802;9.944;2022-09-29T00:05:45;6.07;;;4.30;;
5456;SDS011;2751;49.802;9.944;2022-09-29T00:08:15;5.43;;;4.43;;
5456;SDS011;2751;49.802;9.944;2022-09-29T00:10:43;6.63;;;4.90;;
5456;SDS011;2751;49.802;9.944;2022-09-29T00:13:13;6.47;;;5.43;;
5456;SDS011;2751;49.802;9.944;2022-09-29T00:15:40;5.43;;;4.60;;
5456;SDS011;2751;49.802;9.944;2022-09-29T00:18:08;6.23;;;4.23;;
5456;SDS011;2751;49.802;9.944;2022-09-29T00:20:36;5.53;;;4.60;;
5456;SDS011;2751;49.802;9.944;2022-09-29T00:23:03;11.13;;;5.00;;
5456;SDS011;2751;49.802;9.944;2022-09-29T00:25:31;6.60;;;4.90;;
5456;SDS011;2751;49.802;9.944;2022-09-29T00:27:58;7.10;;;4.90;;
5456;SDS011;2751;49.802;9.944;2022-09-29T00:30:25;7.43;;;4.47;;
5456;SDS011;2751;49.802;9.944;2022-09-29T00:32:52;5.13;;;4.33;;
5456;SDS011;2751;49.802;9.944;2022-09-29T00:35:19;8.40;;;5.03;;
5456;SDS011;2751;49.802;9.944;2022-09-29T00:37:46;10.80;;;4.83;;
5456;SDS011;2751;49.802;9.944;2022-09-29T00:40:13;11.03;;;4.50;;
5456;SDS011;2751;49.802;9.944;2022-09-29T00:42:41;10.37;;;5.37;;
5456;SDS011;2751;49.802;9.944;2022-09-29T00:45:12;7.27;;;4.77;;
5456;SDS011;2751;49.802;9.944;2022-09-29T00:47:46;5.00;;;4.07;;
5456;SDS011;2751;49.802;9.944;2022-09-29T00:50:19;5.60;;;5.00;;
5456;SDS011;2751;49.802;9.944;2022-09-29T00:52:51;9.07;;;5.43;;
5456;SDS011;2751;49.802;9.944;2022-09-29T00:55:22;5.33;;;4.83;;
5456;SDS011;2751;49.802;9.944;2022-09-29T00:57:56;6.10;;;4.97;;
5456;SDS011;2751;49.802;9.944;2022-09-29T01:00:26;6.93;;;4.90;;
5456;SDS011;2751;49.802;9.944;2022-09-29T01:02:53;6.07;;;5.30;;
5456;SDS011;2751;49.802;9.944;2022-09-29T01:05:24;9.33;;;5.67;;
5456;SDS011;2751;49.802;9.944;2022-09-29T01:07:56;10.13;;;5.00;;
5456;SDS011;2751;49.802;9.944;2022-09-29T01:10:27;7.17;;;4.87;;
5456;SDS011;2751;49.802;9.944;2022-09-29T01:12:56;8.73;;;5.70;;
5456;SDS011;2751;49.802;9.944;2022-09-29T01:15:23;6.50;;;5.13;;
5456;SDS011;2751;49.802;9.944;2022-09-29T01:17:53;5.13;;;4.63;;
5456;SDS011;2751;49.802;9.944;2022-09-29T01:20:20;5.80;;;5.00;;
5456;SDS011;2751;49.802;9.944;2022-09-29T01:29:36;4.70;;;4.30;;
5456;SDS011;2751;49.802;9.944;2022-09-29T01:32:41;14.93;;;4.80;;
5456;SDS011;2751;49.802;9.944;2022-09-29T01:35:29;4.70;;;4.30;;
5456;SDS011;2751;49.802;9.944;2022-09-29T01:38:08;4.83;;;3.90;;
5456;SDS011;2751;49.802;9.944;2022-09-29T01:40:44;7.30;;;5.03;;
5456;SDS011;2751;49.802;9.944;2022-09-29T01:43:19;6.37;;;4.00;;
5456;SDS011;2751;49.802;9.944;2022-09-29T01:45:50;4.97;;;4.00;;
5456;SDS011;2751;49.802;9.944;2022-09-29T01:48:25;5.30;;;4.60;;
5456;SDS011;2751;49.802;9.944;2022-09-29T01:50:57;5.80;;;4.10;;
5456;SDS011;2751;49.802;9.944;2022-09-29T01:53:29;5.80;;;4.17;;
5456;SDS011;2751;49.802;9.944;2022-09-29T01:56:02;7.33;;;4.93;;
5456;SDS011;2751;49.802;9.944;2022-09-29T01:58:35;4.57;;;4.17;;
5456;SDS011;2751;49.802;9.944;2022-09-29T02:01:08;7.93;;;4.37;;
5456;SDS011;2751;49.802;9.944;2022-09-29T02:03:40;7.00;;;4.40;;
5456;SDS011;2751;49.802;9.944;2022-09-29T02:06:14;4.90;;;4.13;;
5456;SDS011;2751;49.802;9.944;2022-09-29T02:08:44;4.53;;;4.13;;
5456;SDS011;2751;49.802;9.944;2022-09-29T02:11:14;4.57;;;4.17;;
5456;SDS011;2751;49.802;9.944;2022-09-29T02:13:43;4.23;;;3.83;;
5456;SDS011;2751;49.802;9.944;2022-09-29T02:16:14;7.57;;;4.53;;
5456;SDS011;2751;49.802;9.944;2022-09-29T02:18:46;7.73;;;4.37;;
5456;SDS011;2751;49.802;9.944;2022-09-29T02:21:17;6.37;;;4.20;;
5456;SDS011;2751;49.802;9.944;2022-09-29T02:23:44;7.00;;;4.10;;
5456;SDS011;2751;49.802;9.944;2022-09-29T02:26:11;5.73;;;3.73;;
5456;SDS011;2751;49.802;9.944;2022-09-29T02:28:39;4.00;;;3.70;;
5456;SDS011;2751;49.802;9.944;2022-09-29T02:31:07;13.57;;;4.30;;
5456;SDS011;2751;49.802;9.944;2022-09-29T02:33:34;6.63;;;4.00;;
5456;SDS011;2751;49.802;9.944;2022-09-29T02:36:06;6.03;;;4.73;;
5456;SDS011;2751;49.802;9.944;2022-09-29T02:38:42;7.37;;;4.40;;
5456;SDS011;2751;49.802;9.944;2022-09-29T02:41:15;4.87;;;4.27;;
5456;SDS011;2751;49.802;9.944;2022-09-29T02:44:00;8.93;;;4.03;;
5456;SDS011;2751;49.802;9.944;2022-09-29T02:46:49;6.40;;;4.57;;
5456;SDS011;2751;49.802;9.944;2022-09-29T02:49:31;6.50;;;4.40;;
5456;SDS011;2751;49.802;9.944;2022-09-29T02:52:15;6.63;;;5.10;;
5456;SDS011;2751;49.802;9.944;2022-09-29T02:54:54;5.30;;;4.50;;
5456;SDS011;2751;49.802;9.944;2022-09-29T02:57:27;6.20;;;4.40;;
5456;SDS011;2751;49.802;9.944;2022-09-29T03:00:00;4.27;;;3.70;;
5456;SDS011;2751;49.802;9.944;2022-09-29T03:02:33;4.40;;;4.00;;
5456;SDS011;2751;49.802;9.944;2022-09-29T03:05:00;6.73;;;4.40;;
5456;SDS011;2751;49.802;9.944;2022-09-29T03:07:29;5.03;;;4.00;;
5456;SDS011;2751;49.802;9.944;2022-09-29T03:09:56;6.40;;;4.23;;
5456;SDS011;2751;49.802;9.944;2022-09-29T03:12:23;4.47;;;4.07;;
5456;SDS011;2751;49.802;9.944;2022-09-29T03:14:50;4.90;;;3.83;;
5456;SDS011;2751;49.802;9.944;2022-09-29T03:17:17;4.87;;;4.00;;
5456;SDS011;2751;49.802;9.944;2022-09-29T03:19:44;5.20;;;4.33;;
5456;SDS011;2751;49.802;9.944;2022-09-29T03:22:10;4.37;;;3.83;;
5456;SDS011;2751;49.802;9.944;2022-09-29T03:24:39;6.13;;;4.20;;
5456;SDS011;2751;49.802;9.944;2022-09-29T03:27:06;9.43;;;4.43;;
5456;SDS011;2751;49.802;9.944;2022-09-29T03:29:34;6.57;;;4.83;;
5456;SDS011;2751;49.802;9.944;2022-09-29T03:32:00;6.90;;;4.57;;
5456;SDS011;2751;49.802;9.944;2022-09-29T03:34:27;5.60;;;4.47;;
5456;SDS011;2751;49.802;9.944;2022-09-29T03:36:54;7.33;;;5.43;;
5456;SDS011;2751;49.802;9.944;2022-09-29T03:39:21;4.70;;;4.30;;
5456;SDS011;2751;49.802;9.944;2022-09-29T03:41:50;4.73;;;3.97;;
5456;SDS011;2751;49.802;9.944;2022-09-29T03:44:17;6.23;;;4.33;;
5456;SDS011;2751;49.802;9.944;2022-09-29T03:46:44;5.80;;;4.67;;
5456;SDS011;2751;49.802;9.944;2022-09-29T03:49:11;6.30;;;5.10;;
5456;SDS011;2751;49.802;9.944;2022-09-29T03:51:39;6.50;;;4.50;;
5456;SDS011;2751;49.802;9.944;2022-09-29T03:54:06;6.77;;;4.70;;
5456;SDS011;2751;49.802;9.944;2022-09-29T03:56:34;5.00;;;4.50;;
5456;SDS011;2751;49.802;9.944;2022-09-29T03:59:03;10.57;;;5.17;;
5456;SDS011;2751;49.802;9.944;2022-09-29T04:01:32;7.50;;;4.27;;
5456;SDS011;2751;49.802;9.944;2022-09-29T04:03:59;7.57;;;4.63;;
5456;SDS011;2751;49.802;9.944;2022-09-29T04:06:27;14.17;;;5.27;;
5456;SDS011;2751;49.802;9.944;2022-09-29T04:08:53;5.53;;;4.80;;
5456;SDS011;2751;49.802;9.944;2022-09-29T04:11:20;5.20;;;4.27;;
5456;SDS011;2751;49.802;9.944;2022-09-29T04:13:47;18.87;;;9.70;;
5456;SDS011;2751;49.802;9.944;2022-09-29T04:16:16;6.50;;;5.03;;
5456;SDS011;2751;49.802;9.944;2022-09-29T04:18:42;7.07;;;4.30;;
5456;SDS011;2751;49.802;9.944;2022-09-29T04:21:10;6.63;;;4.50;;
5456;SDS011;2751;49.802;9.944;2022-09-29T04:23:37;5.43;;;4.70;;
5456;SDS011;2751;49.802;9.944;2022-09-29T04:26:05;5.27;;;4.80;;
5456;SDS011;2751;49.802;9.944;2022-09-29T04:28:32;7.10;;;3.80;;
5456;SDS011;2751;49.802;9.944;2022-09-29T04:31:01;5.90;;;4.20;;
5456;SDS011;2751;49.802;9.944;2022-09-29T04:33:29;5.60;;;4.60;;
5456;SDS011;2751;49.802;9.944;2022-09-29T04:35:56;5.50;;;5.00;;
5456;SDS011;2751;49.802;9.944;2022-09-29T04:38:24;10.10;;;5.37;;
5456;SDS011;2751;49.802;9.944;2022-09-29T04:40:51;10.83;;;4.63;;
5456;SDS011;2751;49.802;9.944;2022-09-29T04:43:19;6.67;;;5.00;;
5456;SDS011;2751;49.802;9.944;2022-09-29T04:45:46;6.03;;;4.40;;
5456;SDS011;2751;49.802;9.944;2022-09-29T04:48:12;5.80;;;4.60;;
5456;SDS011;2751;49.802;9.944;2022-09-29T04:50:41;4.60;;;4.27;;
5456;SDS011;2751;49.802;9.944;2022-09-29T04:53:08;4.80;;;4.10;;
5456;SDS011;2751;49.802;9.944;2022-09-29T04:55:36;5.97;;;4.80;;
5456;SDS011;2751;49.802;9.944;2022-09-29T04:58:03;5.37;;;4.70;;
5456;SDS011;2751;49.802;9.944;2022-09-29T05:00:30;7.17;;;5.30;;
5456;SDS011;2751;49.802;9.944;2022-09-29T05:02:58;5.83;;;4.70;;
5456;SDS011;2751;49.802;9.944;2022-09-29T05:05:25;6.93;;;4.40;;
5456;SDS011;2751;49.802;9.944;2022-09-29T05:07:54;5.70;;;4.77;;
5456;SDS011;2751;49.802;9.944;2022-09-29T05:10:20;7.57;;;5.03;;
5456;SDS011;2751;49.802;9.944;2022-09-29T05:12:47;6.07;;;5.47;;
5456;SDS011;2751;49.802;9.944;2022-09-29T05:15:15;7.07;;;5.30;;
5456;SDS011;2751;49.802;9.944;2022-09-29T05:17:43;7.67;;;5.30;;
5456;SDS011;2751;49.802;9.944;2022-09-29T05:20:10;5.77;;;5.10;;
5456;SDS011;2751;49.802;9.944;2022-09-29T05:22:37;5.67;;;5.03;;
5456;SDS011;2751;49.802;9.944;2022-09-29T05:25:06;8.37;;;4.60;;
5456;SDS011;2751;49.802;9.944;2022-09-29T05:27:34;5.50;;;4.93;;
5456;SDS011;2751;49.802;9.944;2022-09-29T05:30:01;10.17;;;8.30;;
5456;SDS011;2751;49.802;9.944;2022-09-29T05:32:29;12.03;;;7.70;;
5456;SDS011;2751;49.802;9.944;2022-09-29T05:34:56;5.43;;;4.90;;
5456;SDS011;2751;49.802;9.944;2022-09-29T05:37:23;7.40;;;5.70;;
5456;SDS011;2751;49.802;9.944;2022-09-29T05:39:50;8.77;;;5.10;;
5456;SDS011;2751;49.802;9.944;2022-09-29T05:42:18;7.93;;;5.73;;
5456;SDS011;2751;49.802;9.944;2022-09-29T05:44:45;7.20;;;5.30;;
5456;SDS011;2751;49.802;9.944;2022-09-29T05:47:12;14.97;;;6.10;;
5456;SDS011;2751;49.802;9.944;2022-09-29T05:49:39;6.63;;;5.90;;
5456;SDS011;2751;49.802;9.944;2022-09-29T05:52:06;10.53;;;6.80;;
5456;SDS011;2751;49.802;9.944;2022-09-29T05:54:33;17.73;;;7.90;;
5456;SDS011;2751;49.802;9.944;2022-09-29T05:57:00;8.30;;;6.30;;
5456;SDS011;2751;49.802;9.944;2022-09-29T05:59:28;8.07;;;5.80;;
5456;SDS011;2751;49.802;9.944;2022-09-29T06:01:55;8.20;;;5.30;;
5456;SDS011;2751;49.802;9.944;2022-09-29T06:04:22;8.70;;;5.73;;
5456;SDS011;2751;49.802;9.944;2022-09-29T06:06:49;12.07;;;5.20;;
5456;SDS011;2751;49.802;9.944;2022-09-29T06:09:17;8.40;;;5.80;;
5456;SDS011;2751;49.802;9.944;2022-09-29T06:11:44;5.77;;;5.10;;
5456;SDS011;2751;49.802;9.944;2022-09-29T06:14:11;10.40;;;5.20;;
5456;SDS011;2751;49.802;9.944;2022-09-29T06:16:39;9.60;;;5.40;;
5456;SDS011;2751;49.802;9.944;2022-09-29T06:19:06;7.30;;;5.60;;
5456;SDS011;2751;49.802;9.944;2022-09-29T06:21:33;9.50;;;6.13;;
5456;SDS011;2751;49.802;9.944;2022-09-29T06:24:02;9.30;;;4.93;;
5456;SDS011;2751;49.802;9.944;2022-09-29T06:26:31;8.10;;;5.33;;
5456;SDS011;2751;49.802;9.944;2022-09-29T06:28:58;9.50;;;4.70;;
5456;SDS011;2751;49.802;9.944;2022-09-29T06:31:26;6.33;;;5.20;;
5456;SDS011;2751;49.802;9.944;2022-09-29T06:33:57;7.77;;;5.50;;
5456;SDS011;2751;49.802;9.944;2022-09-29T06:36:25;5.67;;;5.13;;
5456;SDS011;2751;49.802;9.944;2022-09-29T06:39:13;6.13;;;5.10;;
5456;SDS011;2751;49.802;9.944;2022-09-29T06:41:41;5.23;;;4.73;;
5456;SDS011;2751;49.802;9.944;2022-09-29T06:44:12;11.43;;;5.03;;
5456;SDS011;2751;49.802;9.944;2022-09-29T06:46:39;7.63;;;5.90;;
5456;SDS011;2751;49.802;9.944;2022-09-29T06:49:08;9.17;;;6.43;;
5456;SDS011;2751;49.802;9.944;2022-09-29T06:51:36;10.57;;;7.23;;
5456;SDS011;2751;49.802;9.944;2022-09-29T06:54:03;13.90;;;8.60;;
5456;SDS011;2751;49.802;9.944;2022-09-29T06:56:30;10.83;;;8.60;;
5456;SDS011;2751;49.802;9.944;2022-09-29T06:58:57;10.43;;;7.07;;
5456;SDS011;2751;49.802;9.944;2022-09-29T07:01:24;10.77;;;7.50;;
5456;SDS011;2751;49.802;9.944;2022-09-29T07:03:51;8.87;;;7.40;;
5456;SDS011;2751;49.802;9.944;2022-09-29T07:06:19;14.13;;;8.33;;
5456;SDS011;2751;49.802;9.944;2022-09-29T07:08:46;17.27;;;6.30;;
5456;SDS011;2751;49.802;9.944;2022-09-29T07:11:18;10.77;;;8.03;;
5456;SDS011;2751;49.802;9.944;2022-09-29T07:13:45;11.23;;;6.00;;
5456;SDS011;2751;49.802;9.944;2022-09-29T07:16:12;8.83;;;6.70;;
5456;SDS011;2751;49.802;9.944;2022-09-29T07:18:40;12.27;;;6.67;;
5456;SDS011;2751;49.802;9.944;2022-09-29T07:21:09;8.10;;;6.97;;
5456;SDS011;2751;49.802;9.944;2022-09-29T07:23:42;9.20;;;7.33;;
5456;SDS011;2751;49.802;9.944;2022-09-29T07:26:09;14.97;;;7.70;;
5456;SDS011;2751;49.802;9.944;2022-09-29T07:28:37;10.17;;;8.77;;
5456;SDS011;2751;49.802;9.944;2022-09-29T07:31:05;16.73;;;9.30;;
5456;SDS011;2751;49.802;9.944;2022-09-29T07:33:33;12.90;;;9.63;;
5456;SDS011;2751;49.802;9.944;2022-09-29T07:36:00;11.03;;;9.00;;
5456;SDS011;2751;49.802;9.944;2022-09-29T07:38:28;13.13;;;8.73;;
5456;SDS011;2751;49.802;9.944;2022-09-29T07:41:00;13.00;;;8.90;;
5456;SDS011;2751;49.802;9.944;2022-09-29T07:43:28;13.90;;;8.63;;
5456;SDS011;2751;49.802;9.944;2022-09-29T07:45:55;12.93;;;8.87;;
5456;SDS011;2751;49.802;9.944;2022-09-29T07:48:24;11.00;;;8.20;;
5456;SDS011;2751;49.802;9.944;2022-09-29T07:50:51;19.00;;;9.13;;
5456;SDS011;2751;49.802;9.944;2022-09-29T07:53:25;14.77;;;9.70;;
5456;SDS011;2751;49.802;9.944;2022-09-29T07:55:52;14.70;;;9.53;;
5456;SDS011;2751;49.802;9.944;2022-09-29T07:58:20;12.60;;;8.93;;
5456;SDS011;2751;49.802;9.944;2022-09-29T08:00:51;9.27;;;8.37;;
5456;SDS011;2751;49.802;9.944;2022-09-29T08:03:19;13.47;;;9.40;;
5456;SDS011;2751;49.802;9.944;2022-09-29T08:05:46;12.00;;;9.50;;
5456;SDS011;2751;49.802;9.944;2022-09-29T08:08:13;12.20;;;9.77;;
5456;SDS011;2751;49.802;9.944;2022-09-29T08:10:40;17.47;;;10.23;;
5456;SDS011;2751;49.802;9.944;2022-09-29T08:13:07;13.70;;;9.63;;
5456;SDS011;2751;49.802;9.944;2022-09-29T08:15:36;12.47;;;9.17;;
5456;SDS011;2751;49.802;9.944;2022-09-29T08:18:02;11.17;;;9.50;;
5456;SDS011;2751;49.802;9.944;2022-09-29T08:20:29;11.87;;;9.43;;
5456;SDS011;2751;49.802;9.944;2022-09-29T08:22:56;10.73;;;8.83;;
5456;SDS011;2751;49.802;9.944;2022-09-29T08:25:24;10.43;;;8.73;;
5456;SDS011;2751;49.802;9.944;2022-09-29T08:27:51;11.00;;;8.93;;
5456;SDS011;2751;49.802;9.944;2022-09-29T08:30:18;10.17;;;8.27;;
5456;SDS011;2751;49.802;9.944;2022-09-29T08:32:50;9.87;;;8.47;;
5456;SDS011;2751;49.802;9.944;2022-09-29T08:35:18;9.83;;;7.47;;
5456;SDS011;2751;49.802;9.944;2022-09-29T08:37:45;11.70;;;9.27;;
5456;SDS011;2751;49.802;9.944;2022-09-29T08:40:13;10.73;;;9.60;;
5456;SDS011;2751;49.802;9.944;2022-09-29T08:42:42;10.23;;;7.97;;
5456;SDS011;2751;49.802;9.944;2022-09-29T08:45:23;9.60;;;8.57;;
5456;SDS011;2751;49.802;9.944;2022-09-29T08:47:55;8.03;;;7.23;;
5456;SDS011;2751;49.802;9.944;2022-09-29T08:50:30;12.47;;;7.90;;
5456;SDS011;2751;49.802;9.944;2022-09-29T08:53:01;9.83;;;7.93;;
5456;SDS011;2751;49.802;9.944;2022-09-29T08:55:35;10.23;;;6.83;;
5456;SDS011;2751;49.802;9.944;2022-09-29T08:58:09;8.67;;;7.03;;
5456;SDS011;2751;49.802;9.944;2022-09-29T09:00:39;13.10;;;8.50;;
5456;SDS011;2751;49.802;9.944;2022-09-29T09:03:14;13.80;;;8.00;;
5456;SDS011;2751;49.802;9.944;2022-09-29T09:08:55;8.27;;;6.80;;
5456;SDS011;2751;49.802;9.944;2022-09-29T09:12:00;9.73;;;6.80;;
5456;SDS011;2751;49.802;9.944;2022-09-29T09:14:46;8.30;;;6.87;;
5456;SDS011;2751;49.802;9.944;2022-09-29T09:17:26;7.10;;;6.50;;
5456;SDS011;2751;49.802;9.944;2022-09-29T09:20:19;7.93;;;6.80;;
5456;SDS011;2751;49.802;9.944;2022-09-29T09:22:56;7.40;;;6.23;;
5456;SDS011;2751;49.802;9.944;2022-09-29T09:25:27;8.90;;;7.43;;
5456;SDS011;2751;49.802;9.944;2022-09-29T09:27:59;13.10;;;7.00;;
5456;SDS011;2751;49.802;9.944;2022-09-29T09:30:32;8.20;;;7.50;;
5456;SDS011;2751;49.802;9.944;2022-09-29T09:33:06;8.80;;;7.20;;
5456;SDS011;2751;49.802;9.944;2022-09-29T09:35:43;8.60;;;6.50;;
5456;SDS011;2751;49.802;9.944;2022-09-29T09:38:15;6.47;;;5.87;;
5456;SDS011;2751;49.802;9.944;2022-09-29T09:40:47;26.10;;;19.53;;
5456;SDS011;2751;49.802;9.944;2022-09-29T09:43:18;8.53;;;7.17;;
5456;SDS011;2751;49.802;9.944;2022-09-29T09:45:48;10.47;;;7.67;;
5456;SDS011;2751;49.802;9.944;2022-09-29T09:48:20;9.17;;;7.60;;
5456;SDS011;2751;49.802;9.944;2022-09-29T09:50:56;8.90;;;6.77;;
5456;SDS011;2751;49.802;9.944;2022-09-29T09:53:27;7.90;;;5.90;;
5456;SDS011;2751;49.802;9.944;2022-09-29T09:56:01;6.70;;;5.43;;
5456;SDS011;2751;49.802;9.944;2022-09-29T09:58:43;8.87;;;5.43;;
5456;SDS011;2751;49.802;9.944;2022-09-29T10:01:34;6.97;;;5.37;;
5456;SDS011;2751;49.802;9.944;2022-09-29T10:04:01;5.33;;;4.73;;
5456;SDS011;2751;49.802;9.944;2022-09-29T10:06:29;8.13;;;5.10;;
5456;SDS011;2751;49.802;9.944;2022-09-29T10:08:56;9.23;;;6.10;;
5456;SDS011;2751;49.802;9.944;2022-09-29T10:11:24;7.33;;;5.40;;
5456;SDS011;2751;49.802;9.944;2022-09-29T10:13:57;7.00;;;5.00;;
5456;SDS011;2751;49.802;9.944;2022-09-29T10:16:29;7.70;;;5.80;;
5456;SDS011;2751;49.802;9.944;2022-09-29T10:19:00;6.43;;;5.20;;
5456;SDS011;2751;49.802;9.944;2022-09-29T10:21:36;6.87;;;5.10;;
5456;SDS011;2751;49.802;9.944;2022-09-29T10:24:05;5.53;;;5.00;;
5456;SDS011;2751;49.802;9.944;2022-09-29T10:26:46;5.63;;;4.90;;
5456;SDS011;2751;49.802;9.944;2022-09-29T10:29:18;5.93;;;5.17;;
5456;SDS011;2751;49.802;9.944;2022-09-29T10:32:00;5.53;;;4.40;;
5456;SDS011;2751;49.802;9.944;2022-09-29T10:34:30;4.40;;;3.97;;
5456;SDS011;2751;49.802;9.944;2022-09-29T10:37:01;5.13;;;4.63;;
5456;SDS011;2751;49.802;9.944;2022-09-29T10:39:37;5.37;;;4.47;;
5456;SDS011;2751;49.802;9.944;2022-09-29T10:44:59;5.07;;;4.57;;
5456;SDS011;2751;49.802;9.944;2022-09-29T10:47:28;9.33;;;4.60;;
5456;SDS011;2751;49.802;9.944;2022-09-29T10:50:10;5.33;;;4.53;;
5456;SDS011;2751;49.802;9.944;2022-09-29T10:52:42;4.93;;;4.43;;
5456;SDS011;2751;49.802;9.944;2022-09-29T10:55:16;6.73;;;4.73;;
5456;SDS011;2751;49.802;9.944;2022-09-29T10:57:54;7.30;;;4.97;;
5456;SDS011;2751;49.802;9.944;2022-09-29T11:00:24;8.13;;;5.20;;
5456;SDS011;2751;49.802;9.944;2022-09-29T11:02:54;4.40;;;4.00;;
5456;SDS011;2751;49.802;9.944;2022-09-29T11:05:29;5.23;;;4.73;;
5456;SDS011;2751;49.802;9.944;2022-09-29T11:07:57;9.60;;;5.10;;
5456;SDS011;2751;49.802;9.944;2022-09-29T11:10:28;5.17;;;4.50;;
5456;SDS011;2751;49.802;9.944;2022-09-29T11:12:56;6.77;;;5.20;;
5456;SDS011;2751;49.802;9.944;2022-09-29T11:15:26;8.57;;;5.33;;
5456;SDS011;2751;49.802;9.944;2022-09-29T11:17:54;11.10;;;6.47;;
5456;SDS011;2751;49.802;9.944;2022-09-29T11:20:24;7.50;;;5.50;;
5456;SDS011;2751;49.802;9.944;2022-09-29T11:23:02;5.63;;;4.80;;
5456;SDS011;2751;49.802;9.944;2022-09-29T11:25:45;6.40;;;4.87;;
5456;SDS011;2751;49.802;9.944;2022-09-29T11:28:33;6.73;;;4.80;;
5456;SDS011;2751;49.802;9.944;2022-09-29T11:31:21;8.83;;;4.93;;
5456;SDS011;2751;49.802;9.944;2022-09-29T11:34:01;7.30;;;5.00;;
5456;SDS011;2751;49.802;9.944;2022-09-29T11:36:37;7.47;;;5.23;;
5456;SDS011;2751;49.802;9.944;2022-09-29T11:39:15;8.97;;;5.50;;
5456;SDS011;2751;49.802;9.944;2022-09-29T11:41:57;6.30;;;4.57;;
5456;SDS011;2751;49.802;9.944;2022-09-29T11:44:39;5.37;;;4.73;;
5456;SDS011;2751;49.802;9.944;2022-09-29T11:47:27;5.63;;;4.43;;
5456;SDS011;2751;49.802;9.944;2022-09-29T11:50:20;5.33;;;3.80;;
5456;SDS011;2751;49.802;9.944;2022-09-29T11:53:02;4.60;;;3.50;;
5456;SDS011;2751;49.802;9.944;2022-09-29T11:55:49;5.70;;;4.17;;
5456;SDS011;2751;49.802;9.944;2022-09-29T11:58:28;5.50;;;4.43;;
5456;SDS011;2751;49.802;9.944;2022-09-29T12:01:06;3.30;;;3.00;;
5456;SDS011;2751;49.802;9.944;2022-09-29T12:03:44;6.90;;;3.90;;
5456;SDS011;2751;49.802;9.944;2022-09-29T12:06:23;5.03;;;3.50;;
5456;SDS011;2751;49.802;9.944;2022-09-29T12:09:00;4.10;;;3.47;;
5456;SDS011;2751;49.802;9.944;2022-09-29T12:11:36;5.33;;;3.73;;
5456;SDS011;2751;49.802;9.944;2022-09-29T12:14:11;4.40;;;3.10;;
5456;SDS011;2751;49.802;9.944;2022-09-29T12:16:44;6.80;;;2.40;;
5456;SDS011;2751;49.802;9.944;2022-09-29T12:19:18;3.67;;;3.30;;
5456;SDS011;2751;49.802;9.944;2022-09-29T12:21:49;5.93;;;3.70;;
5456;SDS011;2751;49.802;9.944;2022-09-29T12:24:21;3.83;;;3.10;;
5456;SDS011;2751;49.802;9.944;2022-09-29T12:26:55;5.17;;;3.50;;
5456;SDS011;2751;49.802;9.944;2022-09-29T12:29:30;4.50;;;3.63;;
5456;SDS011;2751;49.802;9.944;2022-09-29T12:32:02;3.43;;;3.10;;
5456;SDS011;2751;49.802;9.944;2022-09-29T12:34:37;3.33;;;2.93;;
5456;SDS011;2751;49.802;9.944;2022-09-29T12:37:10;5.40;;;3.70;;
5456;SDS011;2751;49.802;9.944;2022-09-29T12:39:43;5.10;;;3.33;;
5456;SDS011;2751;49.802;9.944;2022-09-29T12:42:24;5.30;;;2.93;;
5456;SDS011;2751;49.802;9.944;2022-09-29T12:45:02;3.67;;;2.73;;
5456;SDS011;2751;49.802;9.944;2022-09-29T12:47:39;8.23;;;3.37;;
5456;SDS011;2751;49.802;9.944;2022-09-29T12:50:14;3.73;;;2.70;;
5456;SDS011;2751;49.802;9.944;2022-09-29T12:52:45;3.73;;;2.17;;
5456;SDS011;2751;49.802;9.944;2022-09-29T12:55:17;2.63;;;2.40;;
5456;SDS011;2751;49.802;9.944;2022-09-29T12:57:50;3.80;;;2.20;;
5456;SDS011;2751;49.802;9.944;2022-09-29T13:00:21;5.77;;;2.23;;
5456;SDS011;2751;49.802;9.944;2022-09-29T13:02:57;5.70;;;2.60;;
5456;SDS011;2751;49.802;9.944;2022-09-29T13:06:08;2.93;;;2.13;;
5456;SDS011;2751;49.802;9.944;2022-09-29T13:17:51;3.63;;;1.83;;
5456;SDS011;2751;49.802;9.944;2022-09-29T13:23:41;2.30;;;2.00;;
5456;SDS011;2751;49.802;9.944;2022-09-29T13:26:34;3.37;;;2.00;;
5456;SDS011;2751;49.802;9.944;2022-09-29T13:29:20;4.07;;;2.00;;
5456;SDS011;2751;49.802;9.944;2022-09-29T13:31:50;3.60;;;2.17;;
5456;SDS011;2751;49.802;9.944;2022-09-29T13:34:27;4.07;;;2.20;;
5456;SDS011;2751;49.802;9.944;2022-09-29T13:37:03;5.40;;;3.00;;
5456;SDS011;2751;49.802;9.944;2022-09-29T13:39:33;2.00;;;1.90;;
5456;SDS011;2751;49.802;9.944;2022-09-29T13:47:45;4.00;;;2.07;;
5456;SDS011;2751;49.802;9.944;2022-09-29T13:56:07;2.83;;;2.50;;
5456;SDS011;2751;49.802;9.944;2022-09-29T13:58:37;7.27;;;3.47;;
5456;SDS011;2751;49.802;9.944;2022-09-29T14:01:28;3.40;;;2.60;;
5456;SDS011;2751;49.802;9.944;2022-09-29T14:04:06;1.97;;;1.77;;
5456;SDS011;2751;49.802;9.944;2022-09-29T14:07:10;4.20;;;2.37;;
5456;SDS011;2751;49.802;9.944;2022-09-29T14:09:39;5.10;;;1.83;;
5456;SDS011;2751;49.802;9.944;2022-09-29T14:12:15;2.20;;;1.90;;
5456;SDS011;2751;49.802;9.944;2022-09-29T14:14:45;19.17;;;16.43;;
5456;SDS011;2751;49.802;9.944;2022-09-29T14:17:19;3.27;;;2.30;;
5456;SDS011;2751;49.802;9.944;2022-09-29T14:19:51;2.60;;;2.40;;
5456;SDS011;2751;49.802;9.944;2022-09-29T14:25:26;2.43;;;1.43;;
5456;SDS011;2751;49.802;9.944;2022-09-29T14:28:18;2.33;;;2.23;;
5456;SDS011;2751;49.802;9.944;2022-09-29T14:30:49;1.53;;;1.37;;
5456;SDS011;2751;49.802;9.944;2022-09-29T14:33:21;2.70;;;1.80;;
5456;SDS011;2751;49.802;9.944;2022-09-29T14:36:00;3.33;;;1.77;;
5456;SDS011;2751;49.802;9.944;2022-09-29T14:38:29;2.40;;;1.57;;
5456;SDS011;2751;49.802;9.944;2022-09-29T14:41:01;2.60;;;1.60;;
5456;SDS011;2751;49.802;9.944;2022-09-29T14:43:41;3.40;;;2.47;;
5456;SDS011;2751;49.802;9.944;2022-09-29T14:49:24;5.07;;;2.10;;
5456;SDS011;2751;49.802;9.944;2022-09-29T14:52:21;2.50;;;2.23;;
5456;SDS011;2751;49.802;9.944;2022-09-29T14:55:00;2.87;;;2.40;;
5456;SDS011;2751;49.802;9.944;2022-09-29T15:00:30;2.30;;;1.97;;
5456;SDS011;2751;49.802;9.944;2022-09-29T15:03:10;3.50;;;3.00;;
5456;SDS011;2751;49.802;9.944;2022-09-29T15:05:40;2.33;;;2.13;;
5456;SDS011;2751;49.802;9.944;2022-09-29T15:08:21;2.70;;;2.40;;
5456;SDS011;2751;49.802;9.944;2022-09-29T15:10:53;3.83;;;2.90;;
5456;SDS011;2751;49.802;9.944;2022-09-29T15:13:23;2.50;;;2.30;;
5456;SDS011;2751;49.802;9.944;2022-09-29T15:15:54;1.57;;;1.47;;
5456;SDS011;2751;49.802;9.944;2022-09-29T15:18:38;1.77;;;1.67;;
5456;SDS011;2751;49.802;9.944;2022-09-29T15:21:23;1.93;;;1.40;;
5456;SDS011;2751;49.802;9.944;2022-09-29T15:24:03;2.40;;;1.33;;
5456;SDS011;2751;49.802;9.944;2022-09-29T15:26:40;1.70;;;1.60;;
5456;SDS011;2751;49.802;9.944;2022-09-29T15:29:12;1.67;;;1.57;;
5456;SDS011;2751;49.802;9.944;2022-09-29T15:31:42;1.87;;;1.77;;
5456;SDS011;2751;49.802;9.944;2022-09-29T15:34:11;1.23;;;1.13;;
5456;SDS011;2751;49.802;9.944;2022-09-29T15:36:44;1.90;;;1.80;;
5456;SDS011;2751;49.802;9.944;2022-09-29T15:39:32;2.00;;;1.70;;
5456;SDS011;2751;49.802;9.944;2022-09-29T15:42:11;1.87;;;1.23;;
5456;SDS011;2751;49.802;9.944;2022-09-29T15:44:43;2.70;;;1.80;;
5456;SDS011;2751;49.802;9.944;2022-09-29T15:47:19;1.80;;;1.70;;
5456;SDS011;2751;49.802;9.944;2022-09-29T15:49:48;2.07;;;1.67;;
5456;SDS011;2751;49.802;9.944;2022-09-29T15:52:17;2.57;;;2.10;;
5456;SDS011;2751;49.802;9.944;2022-09-29T15:54:52;2.23;;;2.13;;
5456;SDS011;2751;49.802;9.944;2022-09-29T15:57:28;2.97;;;2.77;;
5456;SDS011;2751;49.802;9.944;2022-09-29T16:03:17;2.10;;;1.90;;
5456;SDS011;2751;49.802;9.944;2022-09-29T16:05:59;3.57;;;2.33;;
5456;SDS011;2751;49.802;9.944;2022-09-29T16:08:29;2.40;;;2.20;;
5456;SDS011;2751;49.802;9.944;2022-09-29T16:11:00;3.10;;;2.90;;
5456;SDS011;2751;49.802;9.944;2022-09-29T16:13:32;5.73;;;3.73;;
5456;SDS011;2751;49.802;9.944;2022-09-29T16:16:01;7.23;;;3.50;;
5456;SDS011;2751;49.802;9.944;2022-09-29T16:18:31;4.60;;;3.73;;
5456;SDS011;2751;49.802;9.944;2022-09-29T16:21:04;6.33;;;3.93;;
5456;SDS011;2751;49.802;9.944;2022-09-29T16:23:36;4.40;;;3.37;;
5456;SDS011;2751;49.802;9.944;2022-09-29T16:26:12;4.07;;;3.67;;
5456;SDS011;2751;49.802;9.944;2022-09-29T16:31:32;2.60;;;2.50;;
5456;SDS011;2751;49.802;9.944;2022-09-29T16:34:00;2.70;;;2.50;;